Time,TemperatureF,DewpointF,PressureIn,WindDirection,WindDirectionDegrees,WindSpeedMPH,WindSpeedGustMPH,Humidity,HourlyPrecipIn,Conditions,Clouds,dailyrainin,SoftwareType,DateUTC
2013-08-06 00:02:00,62.0,-99.9,30.01,North,350,5.0,9.0,-999,-99.99,,,-99.99,,2013-08-06 04:02:00,
2013-08-06 00:54:00,61.0,-99.9,30.02,North,356,6.0,8.0,-999,-99.99,,,-99.99,,2013-08-06 04:54:00,
2013-08-06 01:02:00,61.0,-99.9,30.02,North,354,6.0,9.0,-999,-99.99,,,-99.99,,2013-08-06 05:02:00,
2013-08-06 01:11:00,61.0,-99.9,30.02,North,352,5.0,8.0,-999,-99.99,,,-99.99,,2013-08-06 05:11:00,
2013-08-06 01:32:00,61.0,-99.9,30.02,North,356,4.0,7.0,-999,-99.99,,,-99.99,,2013-08-06 05:32:00,
2013-08-06 01:43:00,60.0,-99.9,30.02,North,353,6.0,9.0,-999,-99.99,,,-99.99,,2013-08-06 05:43:00,
2013-08-06 01:53:00,60.0,-99.9,30.02,North,357,6.0,8.0,-999,-99.99,,,-99.99,,2013-08-06 05:53:00,
2013-08-06 02:02:00,60.0,-99.9,30.02,North,357,5.0,8.0,-999,-99.99,,,-99.99,,2013-08-06 06:02:00,
2013-08-06 02:12:00,60.0,-99.9,30.02,North,349,5.0,8.0,-999,-99.99,,,-99.99,,2013-08-06 06:12:00,
2013-08-06 02:32:00,60.0,-99.9,30.02,North,349,7.0,9.0,-999,-99.99,,,-99.99,,2013-08-06 06:32:00,
2013-08-06 02:43:00,60.0,-99.9,30.02,North,352,8.0,10.0,-999,-99.99,,,-99.99,,2013-08-06 06:43:00,
2013-08-06 02:52:00,60.0,-99.9,30.03,NNW,347,6.0,9.0,-999,-99.99,,,-99.99,,2013-08-06 06:52:00,
2013-08-06 03:01:00,59.0,-99.9,30.03,NNW,348,7.0,10.0,-999,-99.99,,,-99.99,,2013-08-06 07:01:00,
2013-08-06 03:12:00,59.0,-99.9,30.03,North,354,9.0,11.0,-999,-99.99,,,-99.99,,2013-08-06 07:12:00,
2013-08-06 03:32:00,60.0,-99.9,30.03,North,355,9.0,11.0,-999,-99.99,,,-99.99,,2013-08-06 07:32:00,
2013-08-06 03:44:00,59.0,-99.9,30.04,North,352,7.0,10.0,-999,-99.99,,,-99.99,,2013-08-06 07:44:00,
2013-08-06 03:53:00,59.0,-99.9,30.04,North,357,9.0,11.0,-999,-99.99,,,-99.99,,2013-08-06 07:53:00,
2013-08-06 04:02:00,59.0,-99.9,30.04,North,360,8.0,10.0,-999,-99.99,,,-99.99,,2013-08-06 08:02:00,
2013-08-06 04:33:00,58.0,-99.9,30.04,North,350,5.0,9.0,-999,-99.99,,,-99.99,,2013-08-06 08:33:00,
2013-08-06 04:43:00,58.0,-99.9,30.04,NNW,344,7.0,9.0,-999,-99.99,,,-99.99,,2013-08-06 08:43:00,
2013-08-06 04:52:00,58.0,-99.9,30.04,NNW,348,7.0,9.0,-999,-99.99,,,-99.99,,2013-08-06 08:52:00,
2013-08-06 05:01:00,58.0,-99.9,30.04,NNW,348,7.0,10.0,-999,-99.99,,,-99.99,,2013-08-06 09:01:00,
2013-08-06 05:11:00,58.0,-99.9,30.05,NNW,347,6.0,9.0,-999,-99.99,,,-99.99,,2013-08-06 09:11:00,
2013-08-06 05:33:00,57.0,-99.9,30.05,North,353,6.0,9.0,-999,-99.99,,,-99.99,,2013-08-06 09:33:00,
2013-08-06 05:43:00,57.0,-99.9,30.05,North,349,5.0,8.0,-999,-99.99,,,-99.99,,2013-08-06 09:43:00,
2013-08-06 06:12:00,57.0,-99.9,30.06,North,349,6.0,10.0,-999,-99.99,,,-99.99,,2013-08-06 10:12:00,
2013-08-06 06:53:00,57.0,-99.9,30.07,NNW,348,8.0,11.0,-999,-99.99,,,-99.99,,2013-08-06 10:53:00,
2013-08-06 07:02:00,57.0,-99.9,30.07,North,355,10.0,13.0,-999,-99.99,,,-99.99,,2013-08-06 11:02:00,
2013-08-06 07:32:00,58.0,-99.9,30.08,North,355,11.0,13.0,-999,-99.99,,,-99.99,,2013-08-06 11:32:00,
2013-08-06 07:53:00,58.0,-99.9,30.08,North,354,10.0,12.0,-999,-99.99,,,-99.99,,2013-08-06 11:53:00,
2013-08-06 08:02:00,59.0,-99.9,30.09,North,1,9.0,13.0,-999,-99.99,,,-99.99,,2013-08-06 12:02:00,
2013-08-06 08:11:00,59.0,-99.9,30.09,North,354,8.0,11.0,-999,-99.99,,,-99.99,,2013-08-06 12:11:00,
2013-08-06 08:32:00,60.0,-99.9,30.09,North,357,8.0,10.0,-999,-99.99,,,-99.99,,2013-08-06 12:32:00,
2013-08-06 08:43:00,61.0,-99.9,30.09,NNW,348,6.0,9.0,-999,-99.99,,,-99.99,,2013-08-06 12:43:00,
2013-08-06 09:02:00,62.0,-99.9,30.09,North,353,6.0,9.0,-999,-99.99,,,-99.99,,2013-08-06 13:02:00,
2013-08-06 09:22:00,63.0,-99.9,30.09,NNW,345,6.0,8.0,-999,-99.99,,,-99.99,,2013-08-06 13:22:00,
2013-08-06 09:32:00,65.0,-99.9,30.09,NNW,342,5.0,6.0,-999,-99.99,,,-99.99,,2013-08-06 13:32:00,
2013-08-06 09:42:00,65.0,-99.9,30.09,NNW,342,5.0,6.0,-999,-99.99,,,-99.99,,2013-08-06 13:42:00,
2013-08-06 10:01:00,69.0,-99.9,30.10,East,100,7.0,9.0,-999,-99.99,,,-99.99,,2013-08-06 14:01:00,
2013-08-06 10:11:00,70.0,-99.9,30.09,ENE,60,6.0,9.0,-999,-99.99,,,-99.99,,2013-08-06 14:11:00,
2013-08-06 10:22:00,70.0,-99.9,30.09,ENE,60,6.0,9.0,-999,-99.99,,,-99.99,,2013-08-06 14:22:00,
2013-08-06 10:32:00,71.0,-99.9,30.09,SE,133,6.0,10.0,-999,-99.99,,,-99.99,,2013-08-06 14:32:00,
2013-08-06 10:42:00,72.0,-99.9,30.09,ESE,104,7.0,12.0,-999,-99.99,,,-99.99,,2013-08-06 14:42:00,
2013-08-06 10:53:00,71.0,-99.9,30.09,East,96,7.0,11.0,-999,-99.99,,,-99.99,,2013-08-06 14:53:00,
2013-08-06 11:02:00,71.0,-99.9,30.09,ESE,110,8.0,10.0,-999,-99.99,,,-99.99,,2013-08-06 15:02:00,
2013-08-06 11:12:00,72.0,-99.9,30.09,East,94,6.0,11.0,-999,-99.99,,,-99.99,,2013-08-06 15:12:00,
2013-08-06 11:33:00,72.0,-99.9,30.09,ESE,123,6.0,11.0,-999,-99.99,,,-99.99,,2013-08-06 15:33:00,
2013-08-06 11:52:00,72.0,-99.9,30.10,SSE,151,9.0,13.0,-999,-99.99,,,-99.99,,2013-08-06 15:52:00,
2013-08-06 12:02:00,72.0,-99.9,30.10,SSE,151,10.0,12.0,-999,-99.99,,,-99.99,,2013-08-06 16:02:00,
2013-08-06 12:32:00,73.0,-99.9,30.10,SE,141,10.0,13.0,-999,-99.99,,,-99.99,,2013-08-06 16:32:00,
2013-08-06 12:43:00,72.0,-99.9,30.11,SE,144,9.0,12.0,-999,-99.99,,,-99.99,,2013-08-06 16:43:00,
2013-08-06 13:02:00,72.0,-99.9,30.11,SSE,152,11.0,13.0,-999,-99.99,,,-99.99,,2013-08-06 17:02:00,
2013-08-06 13:32:00,72.0,-99.9,30.12,SSE,152,11.0,14.0,-999,-99.99,,,-99.99,,2013-08-06 17:32:00,
2013-08-06 13:44:00,72.0,-99.9,30.12,SSE,153,13.0,15.0,-999,-99.99,,,-99.99,,2013-08-06 17:44:00,
2013-08-06 13:52:00,71.0,-99.9,30.12,SSE,152,14.0,16.0,-999,-99.99,,,-99.99,,2013-08-06 17:52:00,
2013-08-06 14:02:00,72.0,-99.9,30.12,SE,144,12.0,15.0,-999,-99.99,,,-99.99,,2013-08-06 18:02:00,
2013-08-06 14:11:00,72.0,-99.9,30.12,SE,125,12.0,15.0,-999,-99.99,,,-99.99,,2013-08-06 18:11:00,
2013-08-06 14:32:00,72.0,-99.9,30.12,South,170,11.0,14.0,-999,-99.99,,,-99.99,,2013-08-06 18:32:00,
2013-08-06 14:44:00,72.0,-99.9,30.11,SSE,165,11.0,15.0,-999,-99.99,,,-99.99,,2013-08-06 18:44:00,
2013-08-06 15:01:00,72.0,-99.9,30.11,SE,130,11.0,15.0,-999,-99.99,,,-99.99,,2013-08-06 19:01:00,
2013-08-06 15:32:00,72.0,-99.9,30.11,SSE,168,9.0,11.0,-999,-99.99,,,-99.99,,2013-08-06 19:32:00,
2013-08-06 15:42:00,71.0,-99.9,30.11,South,170,11.0,13.0,-999,-99.99,,,-99.99,,2013-08-06 19:42:00,
2013-08-06 16:32:00,72.0,-99.9,30.10,South,180,11.0,13.0,-999,-99.99,,,-99.99,,2013-08-06 20:32:00,
2013-08-06 16:52:00,71.0,-99.9,30.11,South,170,10.0,12.0,-999,-99.99,,,-99.99,,2013-08-06 20:52:00,
2013-08-06 17:02:00,71.0,-99.9,30.11,SSE,168,9.0,12.0,-999,-99.99,,,-99.99,,2013-08-06 21:02:00,
2013-08-06 17:43:00,71.0,-99.9,30.11,South,172,9.0,11.0,-999,-99.99,,,-99.99,,2013-08-06 21:43:00,
2013-08-06 18:02:00,72.0,-99.9,30.11,South,173,9.0,10.0,-999,-99.99,,,-99.99,,2013-08-06 22:02:00,
2013-08-06 18:43:00,71.0,-99.9,30.11,SSE,163,8.0,9.0,-999,-99.99,,,-99.99,,2013-08-06 22:43:00,
2013-08-06 18:53:00,71.0,-99.9,30.11,SSE,164,9.0,11.0,-999,-99.99,,,-99.99,,2013-08-06 22:53:00,
2013-08-06 19:02:00,71.0,-99.9,30.11,SSE,165,9.0,11.0,-999,-99.99,,,-99.99,,2013-08-06 23:02:00,
2013-08-06 19:33:00,71.0,-99.9,30.11,SSE,164,8.0,10.0,-999,-99.99,,,-99.99,,2013-08-06 23:33:00,
2013-08-06 19:43:00,71.0,-99.9,30.11,SSE,165,8.0,9.0,-999,-99.99,,,-99.99,,2013-08-06 23:43:00,
2013-08-06 19:52:00,71.0,-99.9,30.11,SSE,167,9.0,10.0,-999,-99.99,,,-99.99,,2013-08-06 23:52:00,
2013-08-06 20:01:00,71.0,-99.9,30.11,South,171,9.0,9.0,-999,-99.99,,,-99.99,,2013-08-07 00:01:00,
2013-08-06 20:32:00,71.0,-99.9,30.12,SSE,166,7.0,9.0,-999,-99.99,,,-99.99,,2013-08-07 00:32:00,
2013-08-06 20:43:00,71.0,-99.9,30.11,SSE,148,6.0,9.0,-999,-99.99,,,-99.99,,2013-08-07 00:43:00,
2013-08-06 21:01:00,71.0,-99.9,30.12,South,170,7.0,8.0,-999,-99.99,,,-99.99,,2013-08-07 01:01:00,
2013-08-06 21:22:00,70.0,-99.9,30.12,SSE,163,6.0,7.0,-999,-99.99,,,-99.99,,2013-08-07 01:22:00,
2013-08-06 22:02:00,70.0,-99.9,30.12,South,187,5.0,6.0,-999,-99.99,,,-99.99,,2013-08-07 02:02:00,
2013-08-06 23:01:00,69.0,-99.9,30.12,South,175,5.0,7.0,-999,-99.99,,,-99.99,,2013-08-07 03:01:00,
2013-08-06 23:12:00,69.0,-99.9,30.11,South,180,5.0,7.0,-999,-99.99,,,-99.99,,2013-08-07 03:12:00,
2013-08-06 23:43:00,69.0,-99.9,30.11,South,190,5.0,6.0,-999,-99.99,,,-99.99,,2013-08-07 03:43:00,
2013-08-06 23:52:00,69.0,-99.9,30.12,SSW,197,5.0,6.0,-999,-99.99,,,-99.99,,2013-08-07 03:52:00,